地図

経路データ

SID SEASON NUMBER BASIN SUBBASIN NAME ISO_TIME NATURE LAT LON WMO_WIND WMO_PRES WMO_AGENCY TRACK_TYPE DIST2LAND LANDFALL IFLAG USA_AGENCY USA_ATCF_ID USA_LAT USA_LON USA_RECORD USA_STATUS USA_WIND USA_PRES USA_SSHS USA_R34_NE USA_R34_SE USA_R34_SW USA_R34_NW USA_R50_NE USA_R50_SE USA_R50_SW USA_R50_NW USA_R64_NE USA_R64_SE USA_R64_SW USA_R64_NW USA_POCI USA_ROCI USA_RMW USA_EYE TOKYO_LAT TOKYO_LON TOKYO_GRADE TOKYO_WIND TOKYO_PRES TOKYO_R50_DIR TOKYO_R50_LONG TOKYO_R50_SHORT TOKYO_R30_DIR TOKYO_R30_LONG TOKYO_R30_SHORT TOKYO_LAND CMA_LAT CMA_LON CMA_CAT CMA_WIND CMA_PRES HKO_LAT HKO_LON HKO_CAT HKO_WIND HKO_PRES NEWDELHI_LAT NEWDELHI_LON NEWDELHI_GRADE NEWDELHI_WIND NEWDELHI_PRES NEWDELHI_CI NEWDELHI_DP NEWDELHI_POCI REUNION_LAT REUNION_LON REUNION_TYPE REUNION_WIND REUNION_PRES REUNION_TNUM REUNION_CI REUNION_RMW REUNION_R34_NE REUNION_R34_SE REUNION_R34_SW REUNION_R34_NW REUNION_R50_NE REUNION_R50_SE REUNION_R50_SW REUNION_R50_NW REUNION_R64_NE REUNION_R64_SE REUNION_R64_SW REUNION_R64_NW BOM_LAT BOM_LON BOM_TYPE BOM_WIND BOM_PRES BOM_TNUM BOM_CI BOM_RMW BOM_R34_NE BOM_R34_SE BOM_R34_SW BOM_R34_NW BOM_R50_NE BOM_R50_SE BOM_R50_SW BOM_R50_NW BOM_R64_NE BOM_R64_SE BOM_R64_SW BOM_R64_NW BOM_ROCI BOM_POCI BOM_EYE BOM_POS_METHOD BOM_PRES_METHOD NADI_LAT NADI_LON NADI_CAT NADI_WIND NADI_PRES WELLINGTON_LAT WELLINGTON_LON WELLINGTON_WIND WELLINGTON_PRES DS824_LAT DS824_LON DS824_STAGE DS824_WIND DS824_PRES TD9636_LAT TD9636_LON TD9636_STAGE TD9636_WIND TD9636_PRES TD9635_LAT TD9635_LON TD9635_WIND TD9635_PRES TD9635_ROCI NEUMANN_LAT NEUMANN_LON NEUMANN_CLASS NEUMANN_WIND NEUMANN_PRES MLC_LAT MLC_LON MLC_CLASS MLC_WIND MLC_PRES USA_GUST BOM_GUST BOM_GUST_PER REUNION_GUST REUNION_GUST_PER USA_SEAHGT USA_SEARAD_NE USA_SEARAD_SE USA_SEARAD_SW USA_SEARAD_NW STORM_SPEED STORM_DIR
1928244N22087 1928 48 NI BB NOT_NAMED 1928-08-31 00:00:00 TS 22.4000 87.2000 main 0 0 _________O____ -1 22.4000 87.2000 TC 30 4 279
1928244N22087 1928 48 NI BB NOT_NAMED 1928-08-31 03:00:00 TS 22.4334 86.9667 main 0 0 _________PO___ -1 22.4502 86.8500 TC 30 22.4000 87.2000 1 5 279
1928244N22087 1928 48 NI BB NOT_NAMED 1928-08-31 06:00:00 TS 22.4815 86.6370 main 0 0 _________OP___ -1 22.5000 86.5000 TC 30 22.4538 86.8426 1 6 279
1928244N22087 1928 48 NI BB NOT_NAMED 1928-08-31 09:00:00 TS 22.5310 86.2949 main 0 0 _________PP___ -1 22.5499 86.1500 TC 30 22.5057 86.4880 1 6 279
1928244N22087 1928 48 NI BB NOT_NAMED 1928-08-31 12:00:00 TS 22.5774 85.9697 main 0 0 _________OP___ -1 22.6000 85.8000 TC 30 22.5548 86.1394 1 6 278
1928244N22087 1928 48 NI BB NOT_NAMED 1928-08-31 15:00:00 TS 22.6212 85.6212 main 0 0 _________PO___ -1 22.6425 85.4424 TC 30 22.6000 85.8000 1 6 278
1928244N22087 1928 48 NI BB NOT_NAMED 1928-08-31 18:00:00 TS 22.6716 85.2857 main 0 0 _________OP___ -1 22.7000 85.1000 TC 30 22.6431 85.4714 1 6 281
1928244N22087 1928 48 NI BB NOT_NAMED 1928-08-31 21:00:00 TS 22.7409 84.9783 main 0 0 _________PP___ -1 22.7848 84.8074 TC 30 22.6971 85.1492 1 6 286
1928244N22087 1928 48 NI BB NOT_NAMED 1928-09-01 00:00:00 TS 22.8387 84.6637 main 0 0 _________OP___ -1 22.9000 84.5000 TC 30 22.7775 84.8275 1 7 289
1928244N22087 1928 48 NI BB NOT_NAMED 1928-09-01 03:00:00 TS 22.9601 84.2999 main 0 0 _________PO___ -1 23.0201 84.0999 TC 30 22.9000 84.5000 1 7 293
1928244N22087 1928 48 NI BB NOT_NAMED 1928-09-01 06:00:00 TS 23.1329 83.9185 main 0 0 _________OP___ -1 23.2000 83.7000 TC 30 23.0658 84.1371 1 8 302
1928244N22087 1928 48 NI BB NOT_NAMED 1928-09-01 09:00:00 TS 23.3688 83.5776 main 0 0 _________PP___ -1 23.4624 83.3848 TC 30 23.2752 83.7703 1 8 311
1928244N22087 1928 48 NI BB NOT_NAMED 1928-09-01 12:00:00 TS 23.6610 83.2591 main 0 0 _________OP___ -1 23.8000 83.1000 TC 30 23.5221 83.4183 1 9 317
1928244N22087 1928 48 NI BB NOT_NAMED 1928-09-01 15:00:00 TS 24.0038 82.9389 main 0 0 _________PO___ -1 24.2076 82.7777 TC 30 23.8000 83.1000 1 9 322
1928244N22087 1928 48 NI BB NOT_NAMED 1928-09-01 18:00:00 TS 24.3744 82.6515 main 0 0 _________OP___ -1 24.6000 82.5000 TC 30 24.1489 82.8030 1 9 327
1928244N22087 1928 48 NI BB NOT_NAMED 1928-09-01 21:00:00 TS 24.7136 82.4253 main 0 0 _________PP___ -1 24.9099 82.3048 TC 30 24.5173 82.5458 1 7 330
1928244N22087 1928 48 NI BB NOT_NAMED 1928-09-02 00:00:00 TS 24.9761 82.2703 main 0 0 _________OP___ -1 25.1000 82.2000 TC 30 24.8521 82.3405 1 5 332
1928244N22087 1928 48 NI BB NOT_NAMED 1928-09-02 03:00:00 TS 25.1187 82.1887 main 0 0 _________PO___ -1 25.1375 82.1774 TC 30 25.1000 82.2000 1 2 330
1928244N22087 1928 48 NI BB NOT_NAMED 1928-09-02 06:00:00 TS 25.1466 82.1673 main 0 0 _________OP___ -1 25.1000 82.2000 TC 30 25.1932 82.1346 1 0 319
1928244N22087 1928 48 NI BB NOT_NAMED 1928-09-02 09:00:00 TS 25.1486 82.1659 main 0 0 _________PP___ -1 25.1000 82.2000 TC 30 25.1973 82.1318 1 0 0
1928244N22087 1928 48 NI BB NOT_NAMED 1928-09-02 12:00:00 TS 25.1263 82.1815 main 0 0 _________OP___ -1 25.1000 82.2000 TC 30 25.1527 82.1630 1 1 135
1928244N22087 1928 48 NI BB NOT_NAMED 1928-09-02 15:00:00 TS 25.1000 82.2000 main 0 0 _________PO___ -1 25.1000 82.2000 TC 30 25.1000 82.2000 1 0 157
1928244N22087 1928 48 NI BB NOT_NAMED 1928-09-02 18:00:00 TS 25.0898 82.2061 main 0 0 _________OP___ -1 25.1000 82.2000 TC 30 25.0797 82.2121 1 0 0
1928244N22087 1928 48 NI BB NOT_NAMED 1928-09-02 21:00:00 TS 25.0737 82.2149 main 0 0 _________PP___ -1 25.0850 82.2075 TC 30 25.0625 82.2224 1 0 0
1928244N22087 1928 48 NI BB NOT_NAMED 1928-09-03 00:00:00 TS 25.0820 82.2107 main 0 0 _________OP___ -1 25.1000 82.2000 TC 30 25.0640 82.2215 1 1 325
1928244N22087 1928 48 NI BB NOT_NAMED 1928-09-03 03:00:00 TS 25.1387 82.1825 main 0 0 _________PO___ -1 25.1775 82.1650 TC 30 25.1000 82.2000 1 2 334
1928244N22087 1928 48 NI BB NOT_NAMED 1928-09-03 06:00:00 TS 25.2405 82.1233 main 0 0 _________OP___ -1 25.3000 82.1000 TC 30 25.1810 82.1466 1 3 331
1928244N22087 1928 48 NI BB NOT_NAMED 1928-09-03 09:00:00 TS 25.3700 82.0400 main 0 0 _________PP___ -1 25.4425 82.0075 TC 30 25.2975 82.0726 1 3 330
1928244N22087 1928 48 NI BB NOT_NAMED 1928-09-03 12:00:00 TS 25.5202 81.9436 main 0 0 _________OP___ -1 25.6000 81.9000 TC 30 25.4403 81.9872 1 3 330
1928244N22087 1928 48 NI BB NOT_NAMED 1928-09-03 15:00:00 TS 25.6713 81.8462 main 0 0 _________PO___ -1 25.7425 81.7925 TC 30 25.6000 81.9000 1 3 333
1928244N22087 1928 48 NI BB NOT_NAMED 1928-09-03 18:00:00 TS 25.8248 81.7677 main 0 0 _________OP___ -1 25.9000 81.7000 TC 30 25.7684 81.8185 1 4 338
1928244N22087 1928 48 NI BB NOT_NAMED 1928-09-03 21:00:00 TS 26.0015 81.7016 main 0 0 _________PP___ -1 26.0900 81.6400 TC 30 25.9425 81.7426 1 4 342
1928244N22087 1928 48 NI BB NOT_NAMED 1928-09-04 00:00:00 TS 26.1802 81.6469 main 0 0 _________OP___ -1 26.3000 81.6000 TC 30 26.1203 81.6704 1 3 343
1928244N22087 1928 48 NI BB NOT_NAMED 1928-09-04 03:00:00 NR 26.3000 81.6000 main 0 __________O___ -1 TC 26.3000 81.6000 1 3 343

IBTrACS Databaseについて

本データベースは、米国NOAAが公開する1842年以降の世界の熱帯低気圧のベストトラックデータアーカイブInternational Best Track Archive for Climate Stewardship (IBTrACS)を、ウェブで閲覧しやすい形式に変換したものです。

最終更新日:2021-10-27